Airfield :
LOGIN :

Register | Disclaimer

   EN    FR    IT 

 










Legend :    VFR   Marginal VFR   IFR   Intensive IFR   Very Intensive IFR
Visi :
Ceiling :
>= 8 km
>= 3000ft
5 to 8 km
1000 to 3000 ft
1500m to 5 km
500 to 1000 ft
800 to 1500m
200 to 500 ft
< 800m
< 200 ft
Symbols :   Thunderstorms  Fog  Heavy snow  Heavy precipitations  Wind > 20 kt
SIGMETs :     Misc.  Thunderstorms  Icing  Turbulence  Mountain Waves  Volcanic Ashes






- Airport Elevation : 92 ft


EGXZ - RAP Topcliffe

CURRENT METAR :
  • 240620Z AUTO 35013KT 9999 // OVC048/// 05/01 Q1019

EXPIRED METARs :
  • 240550Z AUTO 34010KT 9999 // FEW034/// OVC047/// 05/01 Q1019
  • 240520Z AUTO 34010KT 9999 FEW025/// OVC047/// 05/01 Q1019
  • 240450Z AUTO 34012KT 9999 FEW036/// OVC047/// 05/01 Q1019
  • 240420Z AUTO 33008KT 9999 OVC047/// 05/01 Q1019
  • 240350Z AUTO 33010KT 9999 FEW037/// BKN049/// 05/01 Q1019
  • 240320Z AUTO 35008KT 9999 // BKN029/// BKN048/// 05/01 Q1019
  • 240250Z AUTO 34010KT 9999 // OVC043/// 05/01 Q1020
  • 240220Z AUTO 36009KT 9999 -RA OVC020/// 05/02 Q1020

Expired Forecast.



MET'MAP, your aeronautical weather chart ! - Copyright ORBIFLY December 2007 - Disclaimer

ORBIFLY MET'MAP TEAM :

Programming & Development : Alexandra Zaïnal
Original concept : Baudouin d'Aumeries
Technical & hardware support : Manuel Goepfert
Assistance : Marc-Olivier Méhu




SOURCES & CREDITS :

   NOAA